Time;durP1;ratioP1;P1;durP2;ratioP2;P2;SDS_P1;SDS_P2;PMS_P1;PMS_P2;Temp;Humidity;BMP_temperature;BMP_pressure;BME280_temperature;BME280_humidity;BME280_pressure;Samples;Min_cycle;Max_cycle;Signal;HPM_P1;HPM_P2
2023/10/01 00:00:15;;;;;;;15.32;4.40;;;13.40;99.90;;;;;;5156754;27;20053;-23
2023/10/01 00:02:41;;;;;;;13.73;4.47;;;13.40;99.90;;;;;;5155562;27;20042;-23
2023/10/01 00:05:09;;;;;;;16.10;4.95;;;13.40;99.90;;;;;;5156666;27;20089;-23
2023/10/01 00:07:40;;;;;;;11.20;3.67;;;13.40;99.90;;;;;;5156761;27;20039;-23
2023/10/01 00:10:10;;;;;;;12.40;4.75;;;13.40;99.90;;;;;;5156482;27;20047;-23
2023/10/01 00:12:38;;;;;;;12.25;5.32;;;13.50;99.90;;;;;;5156826;27;20069;-23
2023/10/01 00:15:06;;;;;;;13.73;4.82;;;13.40;99.90;;;;;;5155148;27;20047;-23
2023/10/01 00:17:32;;;;;;;13.35;5.70;;;13.50;99.90;;;;;;5156887;27;20384;-23
2023/10/01 00:20:00;;;;;;;9.68;5.10;;;13.50;99.90;;;;;;5156056;27;20126;-23
2023/10/01 00:22:26;;;;;;;13.23;5.20;;;13.50;99.90;;;;;;5156254;27;20055;-23
2023/10/01 00:24:52;;;;;;;15.10;5.05;;;13.50;99.90;;;;;;5155034;27;20083;-23
2023/10/01 00:27:18;;;;;;;14.98;5.55;;;13.40;99.90;;;;;;5155981;27;20093;-23
2023/10/01 00:29:44;;;;;;;14.10;5.40;;;13.50;99.90;;;;;;5156146;27;20042;-22
2023/10/01 00:32:10;;;;;;;14.98;5.53;;;13.50;99.90;;;;;;5155682;27;20551;-23
2023/10/01 00:34:36;;;;;;;24.58;5.88;;;13.50;99.90;;;;;;5155941;27;20122;-23
2023/10/01 00:37:02;;;;;;;13.15;5.38;;;13.50;99.90;;;;;;5155985;27;20471;-23
2023/10/01 00:39:28;;;;;;;12.95;4.78;;;13.60;99.90;;;;;;5155996;27;20045;-23
2023/10/01 00:41:54;;;;;;;14.80;5.80;;;13.50;99.90;;;;;;5155928;27;20047;-23
2023/10/01 00:44:19;;;;;;;16.98;5.75;;;13.50;99.90;;;;;;5155774;27;20046;-23
2023/10/01 00:46:46;;;;;;;13.35;5.45;;;13.50;99.90;;;;;;5154714;27;20050;-23
2023/10/01 00:49:12;;;;;;;13.00;5.88;;;13.60;99.90;;;;;;5156326;27;20030;-23
2023/10/01 00:51:38;;;;;;;11.90;4.82;;;13.50;99.90;;;;;;5155772;27;20053;-23
2023/10/01 00:54:04;;;;;;;10.30;5.60;;;13.50;99.90;;;;;;5155650;27;20042;-23
2023/10/01 00:56:31;;;;;;;10.15;4.35;;;13.60;99.90;;;;;;5155978;27;20130;-23
2023/10/01 00:58:57;;;;;;;12.25;5.80;;;13.60;99.90;;;;;;5155687;27;20059;-23
2023/10/01 01:01:26;;;;;;;16.25;5.85;;;13.60;99.90;;;;;;5156199;27;20417;-23
2023/10/01 01:03:52;;;;;;;20.58;5.57;;;13.60;99.90;;;;;;5155260;27;20629;-23
2023/10/01 01:06:23;;;;;;;16.17;6.60;;;13.50;99.90;;;;;;5155150;27;20069;-23
2023/10/01 01:08:54;;;;;;;14.85;5.15;;;13.60;99.90;;;;;;5155779;27;20083;-23
2023/10/01 01:11:22;;;;;;;13.95;5.22;;;13.60;99.90;;;;;;5156146;27;20426;-23
2023/10/01 01:13:49;;;;;;;15.82;5.18;;;13.60;99.90;;;;;;5155512;27;20129;-23
2023/10/01 01:16:19;;;;;;;13.55;5.00;;;13.50;99.90;;;;;;5155036;27;20042;-23
2023/10/01 01:18:51;;;;;;;13.52;5.20;;;13.60;99.90;;;;;;5155986;27;20092;-23
2023/10/01 01:21:20;;;;;;;12.27;5.47;;;13.60;99.90;;;;;;5154761;27;20129;-23
2023/10/01 01:23:46;;;;;;;10.40;4.88;;;13.50;99.90;;;;;;5155416;27;20766;-23
2023/10/01 01:26:20;;;;;;;17.83;5.20;;;13.50;99.90;;;;;;5155464;27;20089;-22
2023/10/01 01:28:47;;;;;;;12.13;4.85;;;13.50;99.90;;;;;;5154132;27;20039;-23
2023/10/01 01:31:14;;;;;;;13.40;5.57;;;13.50;99.90;;;;;;5154932;27;20050;-23
2023/10/01 01:33:52;;;;;;;15.55;5.40;;;13.50;99.90;;;;;;5159403;27;20054;-23
2023/10/01 01:36:19;;;;;;;10.25;4.53;;;13.50;99.90;;;;;;5158429;27;20483;-23
2023/10/01 01:39:12;;;;;;;16.95;5.68;;;13.50;99.90;;;;;;5159567;27;20078;-23
2023/10/01 01:41:47;;;;;;;18.08;7.07;;;13.50;99.90;;;;;;5160105;27;20472;-23
2023/10/01 01:44:14;;;;;;;16.88;7.47;;;13.50;99.90;;;;;;5160009;27;20047;-23
2023/10/01 01:46:50;;;;;;;10.68;5.95;;;13.60;99.90;;;;;;5159651;27;20387;-23
2023/10/01 01:49:19;;;;;;;12.73;5.82;;;13.60;99.90;;;;;;5159312;27;20095;-23
2023/10/01 01:51:57;;;;;;;15.93;6.40;;;13.60;99.90;;;;;;5158055;27;20046;-23
2023/10/01 01:54:42;;;;;;;18.33;6.75;;;13.60;99.90;;;;;;5158355;27;20043;-23
2023/10/01 01:57:13;;;;;;;12.27;6.57;;;13.60;99.90;;;;;;5159875;27;20537;-23
2023/10/01 01:59:41;;;;;;;16.80;6.57;;;13.60;99.90;;;;;;5159472;27;20054;-23
2023/10/01 02:02:11;;;;;;;24.77;8.20;;;13.60;99.90;;;;;;5159057;27;20038;-23
2023/10/01 02:04:58;;;;;;;16.05;6.85;;;13.60;99.90;;;;;;5157750;27;20054;-23
2023/10/01 02:07:24;;;;;;;18.05;7.00;;;13.60;99.90;;;;;;5159267;27;20054;-23
2023/10/01 02:09:51;;;;;;;21.13;8.38;;;13.60;99.90;;;;;;5158917;27;20042;-23
2023/10/01 02:12:23;;;;;;;14.25;7.00;;;13.60;99.90;;;;;;5158930;27;20043;-23
2023/10/01 02:14:54;;;;;;;18.10;7.57;;;13.60;99.90;;;;;;5159533;27;20057;-22
2023/10/01 02:17:22;;;;;;;15.98;7.45;;;13.60;99.90;;;;;;5157807;27;20781;-23
2023/10/01 02:19:48;;;;;;;16.20;7.15;;;13.60;99.90;;;;;;5157808;27;20043;-23
2023/10/01 02:22:16;;;;;;;13.60;6.88;;;13.60;99.90;;;;;;5140212;27;20043;-23
2023/10/01 02:24:45;;;;;;;12.55;7.18;;;13.60;99.90;;;;;;5158597;27;20085;-23
2023/10/01 02:27:16;;;;;;;16.77;6.93;;;13.60;99.90;;;;;;5158339;27;20054;-23
2023/10/01 02:29:45;;;;;;;18.05;8.02;;;13.60;99.90;;;;;;5158174;27;20564;-23
2023/10/01 02:32:14;;;;;;;16.50;8.30;;;13.60;99.90;;;;;;5158482;27;20499;-23
2023/10/01 02:34:42;;;;;;;19.55;8.75;;;13.60;99.90;;;;;;5158449;27;20053;-22
2023/10/01 02:37:09;;;;;;;17.08;8.35;;;13.60;99.90;;;;;;5158939;27;20050;-23
2023/10/01 02:39:37;;;;;;;21.27;8.50;;;13.60;99.90;;;;;;5158331;27;20046;-23
2023/10/01 02:44:40;;;;;;;13.38;7.97;;;13.60;99.90;;;;;;5158065;27;20056;-23
2023/10/01 02:47:16;;;;;;;17.02;9.10;;;13.50;99.90;;;;;;5158210;27;20051;-23
2023/10/01 02:49:52;;;;;;;17.63;8.73;;;13.60;99.90;;;;;;5159028;27;20047;-23
2023/10/01 02:52:22;;;;;;;18.40;9.63;;;13.60;99.90;;;;;;5158714;27;20058;-23
2023/10/01 02:54:57;;;;;;;17.83;8.48;;;13.60;99.90;;;;;;5157988;27;20047;-22
2023/10/01 02:57:26;;;;;;;18.45;8.57;;;13.60;99.90;;;;;;5158609;27;20400;-23
2023/10/01 03:02:41;;;;;;;21.58;9.45;;;13.60;99.90;;;;;;5157950;27;20134;-23
2023/10/01 03:05:18;;;;;;;18.80;9.00;;;13.60;99.90;;;;;;5157861;27;20099;-23
2023/10/01 03:07:45;;;;;;;25.70;8.65;;;13.60;99.90;;;;;;5158588;27;20425;-23
2023/10/01 03:12:50;;;;;;;17.23;8.88;;;13.70;99.90;;;;;;5157791;27;20137;-23
2023/10/01 03:15:24;;;;;;;21.30;8.80;;;13.70;99.90;;;;;;5157745;27;20089;-23
2023/10/01 03:17:57;;;;;;;18.25;9.23;;;13.70;99.90;;;;;;5139686;27;20438;-23
2023/10/01 03:23:17;;;;;;;15.05;8.55;;;13.70;99.90;;;;;;5157544;27;20399;-23
2023/10/01 03:25:56;;;;;;;21.58;9.52;;;13.70;99.90;;;;;;5158017;27;20047;-23
2023/10/01 03:28:26;;;;;;;15.85;9.05;;;13.70;99.90;;;;;;5157664;27;20425;-23
2023/10/01 03:31:09;;;;;;;17.45;8.20;;;13.70;99.90;;;;;;5157979;27;20388;-23
2023/10/01 03:33:39;;;;;;;14.80;8.27;;;13.70;99.90;;;;;;5157364;27;20089;-23
2023/10/01 03:36:10;;;;;;;17.30;9.15;;;13.80;99.90;;;;;;5157221;27;20280;-23
2023/10/01 03:38:47;;;;;;;19.88;8.45;;;13.80;99.90;;;;;;5156506;27;20047;-23
2023/10/01 03:41:22;;;;;;;14.80;7.18;;;13.80;99.90;;;;;;5157234;27;20058;-23
2023/10/01 03:43:55;;;;;;;17.80;8.38;;;13.80;99.90;;;;;;5156447;27;20054;-23
2023/10/01 03:49:00;;;;;;;17.88;8.60;;;13.90;99.90;;;;;;5156888;27;19923;-23
2023/10/01 03:54:17;;;;;;;15.45;8.15;;;13.90;99.90;;;;;;5156821;27;20047;-22
2023/10/01 03:56:55;;;;;;;19.98;8.35;;;14.00;99.90;;;;;;5155231;27;20042;-23
2023/10/01 03:59:32;;;;;;;21.05;8.05;;;14.00;99.90;;;;;;5156591;27;20070;-23
2023/10/01 04:01:58;;;;;;;13.13;7.45;;;14.10;99.90;;;;;;5156767;27;20473;-23
2023/10/01 04:04:31;;;;;;;18.05;7.78;;;14.10;99.90;;;;;;5156664;27;20047;-23
2023/10/01 04:07:10;;;;;;;14.07;7.93;;;14.10;99.90;;;;;;5156680;27;20098;-23
2023/10/01 04:09:46;;;;;;;12.82;7.05;;;14.10;99.90;;;;;;5156554;27;20042;-23
2023/10/01 04:12:32;;;;;;;19.90;7.90;;;14.10;99.90;;;;;;5155569;27;20472;-23
2023/10/01 04:15:02;;;;;;;14.98;7.20;;;14.10;99.90;;;;;;5155837;27;20500;-23
2023/10/01 04:17:28;;;;;;;17.63;9.40;;;14.10;99.90;;;;;;5155445;27;20507;-23
2023/10/01 04:20:00;;;;;;;16.00;7.88;;;14.10;99.90;;;;;;5138205;27;20051;-23
2023/10/01 04:22:29;;;;;;;14.60;8.23;;;14.10;99.90;;;;;;5156724;27;20046;-23
2023/10/01 04:25:10;;;;;;;17.23;8.77;;;14.10;99.90;;;;;;5156904;27;20043;-23
2023/10/01 04:27:41;;;;;;;16.45;9.52;;;14.10;99.90;;;;;;5155980;27;20055;-23
2023/10/01 04:30:09;;;;;;;14.90;7.53;;;14.10;99.90;;;;;;5156211;27;20444;-23
2023/10/01 04:32:36;;;;;;;15.27;8.43;;;14.10;99.90;;;;;;5156150;27;20054;-23
2023/10/01 04:35:17;;;;;;;15.18;8.50;;;14.00;99.90;;;;;;5154915;27;20129;-23
2023/10/01 04:37:45;;;;;;;12.95;7.68;;;14.00;99.90;;;;;;5156663;27;20134;-23
2023/10/01 04:43:01;;;;;;;16.13;7.97;;;14.00;99.90;;;;;;5155839;27;20047;-23
2023/10/01 04:45:36;;;;;;;16.77;8.18;;;14.00;99.90;;;;;;5155947;27;20038;-23
2023/10/01 04:48:15;;;;;;;15.15;7.78;;;14.00;99.90;;;;;;5154800;27;20480;-23
2023/10/01 04:50:42;;;;;;;13.48;7.68;;;14.00;99.90;;;;;;5155731;27;20088;-23
2023/10/01 04:53:09;;;;;;;14.75;7.57;;;14.00;99.90;;;;;;5155774;27;20118;-23
2023/10/01 04:55:41;;;;;;;12.95;8.05;;;14.00;99.90;;;;;;5154741;27;20099;-23
2023/10/01 04:58:08;;;;;;;15.85;7.57;;;14.00;99.90;;;;;;5156609;27;20380;-23
2023/10/01 05:00:34;;;;;;;20.05;9.10;;;14.00;99.90;;;;;;5155670;27;20061;-23
2023/10/01 05:03:03;;;;;;;16.60;7.72;;;14.00;99.90;;;;;;5155628;27;20050;-23
2023/10/01 05:05:29;;;;;;;19.88;9.40;;;14.00;99.90;;;;;;5154692;27;20496;-23
2023/10/01 05:07:58;;;;;;;14.70;7.15;;;14.00;99.90;;;;;;5155123;27;20078;-23
2023/10/01 05:10:25;;;;;;;12.98;7.55;;;14.00;99.90;;;;;;5154515;27;20480;-23
2023/10/01 05:12:55;;;;;;;15.77;8.00;;;14.00;99.90;;;;;;5155502;27;20051;-23
2023/10/01 05:15:26;;;;;;;14.13;7.35;;;14.00;99.90;;;;;;5154484;27;20081;-23
2023/10/01 05:17:55;;;;;;;13.13;7.03;;;14.00;99.90;;;;;;5155539;27;20050;-23
2023/10/01 05:20:23;;;;;;;17.50;8.38;;;14.00;99.90;;;;;;5155481;27;20126;-23
2023/10/01 05:22:54;;;;;;;17.85;9.35;;;14.00;99.90;;;;;;5155941;27;20046;-23
2023/10/01 05:25:20;;;;;;;16.25;7.10;;;14.00;99.90;;;;;;5155184;27;20055;-22
2023/10/01 05:27:46;;;;;;;12.75;7.22;;;14.00;99.90;;;;;;5155927;27;20400;-23
2023/10/01 05:32:58;;;;;;;15.38;7.25;;;14.00;99.90;;;;;;5155855;27;20049;-23
2023/10/01 05:35:28;;;;;;;16.42;7.63;;;13.90;99.90;;;;;;5154332;27;20167;-23
2023/10/01 05:37:54;;;;;;;16.13;6.57;;;14.00;99.90;;;;;;5155285;27;20121;-23
2023/10/01 05:40:22;;;;;;;15.43;7.43;;;14.00;99.90;;;;;;5155218;27;20062;-22
2023/10/01 05:42:49;;;;;;;16.42;8.00;;;13.90;99.90;;;;;;5155232;27;20082;-22
2023/10/01 05:45:18;;;;;;;12.65;7.30;;;14.00;99.90;;;;;;5120407;27;20061;-22
2023/10/01 05:47:54;;;;;;;18.08;7.47;;;13.90;99.90;;;;;;5153825;27;20051;-22
2023/10/01 05:50:22;;;;;;;16.52;8.27;;;13.90;99.90;;;;;;5155499;27;20051;-22
2023/10/01 05:52:50;;;;;;;14.40;6.97;;;13.90;99.90;;;;;;5155126;27;20099;-22
2023/10/01 05:55:16;;;;;;;17.88;8.63;;;13.90;99.90;;;;;;5155087;27;20054;-23
2023/10/01 05:57:43;;;;;;;20.73;7.90;;;14.00;99.90;;;;;;5154143;27;20138;-23
2023/10/01 06:00:17;;;;;;;13.95;7.55;;;13.90;99.90;;;;;;5155078;27;20082;-23
2023/10/01 06:03:00;;;;;;;17.65;8.00;;;13.90;99.90;;;;;;5154400;27;20069;-23
2023/10/01 06:05:50;;;;;;;14.63;8.65;;;13.90;99.90;;;;;;5155044;27;20046;-22
2023/10/01 06:08:24;;;;;;;18.13;7.15;;;13.90;99.90;;;;;;5154957;27;20049;-23
2023/10/01 06:11:09;;;;;;;19.25;8.05;;;13.90;99.90;;;;;;5155304;27;20510;-23
2023/10/01 06:13:38;;;;;;;15.75;7.57;;;13.90;99.90;;;;;;5154668;27;20488;-23
2023/10/01 06:16:11;;;;;;;16.77;8.00;;;14.00;99.90;;;;;;5155214;27;20447;-23
2023/10/01 06:18:41;;;;;;;;;;;13.90;99.90;;;;;;5156666;27;20164;-22
2023/10/01 06:21:09;;;;;;;13.20;6.78;;;14.00;99.90;;;;;;5158708;27;19923;-23
2023/10/01 06:23:49;;;;;;;15.85;7.40;;;14.00;99.90;;;;;;5159282;27;20383;-23
2023/10/01 06:26:29;;;;;;;13.60;7.32;;;14.00;99.90;;;;;;5158692;27;20054;-23
2023/10/01 06:28:57;;;;;;;15.88;7.43;;;14.00;99.90;;;;;;5159133;27;20089;-23
2023/10/01 06:31:23;;;;;;;15.80;7.40;;;14.00;99.90;;;;;;5157543;27;20046;-23
2023/10/01 06:33:53;;;;;;;13.23;7.25;;;14.10;99.90;;;;;;5158466;27;20053;-23
2023/10/01 06:36:23;;;;;;;14.48;7.50;;;14.20;99.90;;;;;;5157856;27;20054;-24
2023/10/01 06:38:54;;;;;;;14.82;7.28;;;14.20;99.90;;;;;;5157134;27;20039;-23
2023/10/01 06:41:26;;;;;;;13.82;7.15;;;14.30;99.90;;;;;;5157905;27;20396;-23
2023/10/01 06:43:56;;;;;;;18.45;6.82;;;14.30;99.90;;;;;;5159147;27;20043;-23
2023/10/01 06:46:23;;;;;;;20.60;7.25;;;14.30;99.90;;;;;;5157260;27;20050;-23
2023/10/01 06:48:50;;;;;;;13.93;7.18;;;14.40;99.90;;;;;;5158103;27;20480;-23
2023/10/01 06:51:25;;;;;;;14.73;7.32;;;14.40;99.90;;;;;;5158033;27;20042;-23
2023/10/01 06:54:00;;;;;;;16.23;7.65;;;14.50;99.90;;;;;;5158728;27;20103;-23
2023/10/01 06:56:29;;;;;;;19.77;7.18;;;14.50;99.90;;;;;;5158939;27;20358;-23
2023/10/01 06:59:14;;;;;;;14.10;6.95;;;14.50;99.90;;;;;;5158298;27;20049;-23
2023/10/01 07:01:47;;;;;;;14.57;7.75;;;14.60;99.90;;;;;;5157989;27;20051;-23
2023/10/01 07:04:23;;;;;;;15.38;6.72;;;14.70;99.90;;;;;;5157050;27;20081;-23
2023/10/01 07:06:53;;;;;;;20.83;6.43;;;14.80;99.90;;;;;;5157744;27;20054;-23
2023/10/01 07:09:38;;;;;;;13.95;7.13;;;14.80;99.90;;;;;;5157738;27;20042;-24
2023/10/01 07:12:06;;;;;;;15.75;6.93;;;14.90;99.90;;;;;;5156839;27;20054;-23
2023/10/01 07:14:44;;;;;;;20.30;7.03;;;15.00;99.90;;;;;;5158265;27;20207;-23
2023/10/01 07:17:15;;;;;;;15.32;7.32;;;15.00;99.90;;;;;;5158543;27;20125;-23
2023/10/01 07:19:42;;;;;;;16.75;6.88;;;14.90;99.90;;;;;;5157606;27;20039;-23
2023/10/01 07:22:09;;;;;;;15.73;7.03;;;14.90;99.90;;;;;;5156626;27;20051;-23
2023/10/01 07:24:38;;;;;;;14.13;7.40;;;15.00;99.90;;;;;;5157517;27;20042;-23
2023/10/01 07:27:06;;;;;;;15.23;7.43;;;15.10;99.90;;;;;;5157009;27;20058;-23
2023/10/01 07:29:39;;;;;;;14.80;7.03;;;15.10;99.90;;;;;;5155722;27;20118;-23
2023/10/01 07:32:07;;;;;;;20.35;7.07;;;15.00;99.90;;;;;;5157238;27;20186;-23
2023/10/01 07:34:39;;;;;;;15.65;6.53;;;15.10;99.90;;;;;;5157301;27;20125;-24
2023/10/01 07:37:08;;;;;;;11.73;6.00;;;15.10;99.90;;;;;;5158189;27;20046;-23
2023/10/01 07:39:40;;;;;;;20.10;7.78;;;15.00;99.90;;;;;;5157447;27;20555;-23
2023/10/01 07:42:06;;;;;;;15.68;6.28;;;15.00;99.90;;;;;;5157185;27;20488;-23
2023/10/01 07:44:38;;;;;;;16.42;7.22;;;15.10;99.90;;;;;;5157193;27;20610;-23
2023/10/01 07:47:04;;;;;;;17.73;8.23;;;15.10;99.90;;;;;;5157025;27;20099;-23
2023/10/01 07:49:49;;;;;;;16.08;8.25;;;15.10;99.90;;;;;;5157100;27;20046;-23
2023/10/01 07:52:19;;;;;;;15.13;7.43;;;15.10;99.90;;;;;;5157866;27;20046;-23
2023/10/01 07:54:48;;;;;;;17.90;6.47;;;15.10;99.90;;;;;;5157121;27;20057;-23
2023/10/01 07:57:18;;;;;;;18.90;7.03;;;15.10;99.90;;;;;;5156521;27;20066;-23
2023/10/01 07:59:46;;;;;;;14.35;6.43;;;15.10;99.90;;;;;;5155583;27;20051;-23
2023/10/01 08:07:16;;;;;;;12.73;6.32;;;15.10;99.90;;;;;;5156934;27;20047;-23
2023/10/01 08:09:51;;;;;;;16.00;6.63;;;15.10;99.90;;;;;;5155050;27;20496;-23
2023/10/01 08:12:29;;;;;;;14.65;6.75;;;15.20;99.90;;;;;;5156550;27;20129;-23
2023/10/01 08:20:58;;;;;;;18.20;7.10;;;15.40;99.90;;;;;;5076519;28;20059;-24
2023/10/01 08:23:25;;;;;;;15.60;6.13;;;15.40;99.90;;;;;;5134940;27;20089;-23
2023/10/01 08:25:51;;;;;;;16.85;6.03;;;15.50;99.90;;;;;;5156154;27;20495;-23
2023/10/01 08:31:01;;;;;;;15.48;5.93;;;15.70;99.90;;;;;;5155493;27;20141;-24
2023/10/01 08:33:32;;;;;;;16.15;6.55;;;15.60;99.90;;;;;;5157027;27;20043;-24
2023/10/01 08:36:12;;;;;;;13.82;6.80;;;15.70;99.90;;;;;;5156403;27;20158;-24
2023/10/01 08:38:48;;;;;;;21.23;6.47;;;15.80;99.90;;;;;;5155085;27;20099;-24
2023/10/01 08:41:32;;;;;;;17.58;7.20;;;15.90;99.90;;;;;;5155715;27;20380;-24
2023/10/01 08:44:09;;;;;;;17.08;6.38;;;16.00;99.90;;;;;;5155257;27;20047;-24
2023/10/01 08:46:39;;;;;;;16.05;6.45;;;16.00;99.90;;;;;;5156462;27;20049;-24
2023/10/01 08:49:23;;;;;;;16.90;7.05;;;16.00;99.90;;;;;;5156128;27;20105;-24
2023/10/01 08:51:52;;;;;;;13.93;5.93;;;16.10;99.90;;;;;;5155861;27;20511;-24
2023/10/01 08:54:24;;;;;;;14.27;6.18;;;16.10;99.90;;;;;;5156214;27;20468;-23
2023/10/01 08:56:57;;;;;;;13.85;6.10;;;16.30;99.90;;;;;;5155811;27;20099;-24
2023/10/01 08:59:23;;;;;;;15.07;6.78;;;16.40;99.90;;;;;;5155841;27;20528;-23
2023/10/01 09:01:55;;;;;;;16.60;6.68;;;16.50;99.90;;;;;;5155682;27;20125;-24
2023/10/01 09:07:40;;;;;;;18.80;6.53;;;16.60;99.90;;;;;;5091629;28;20052;-24
2023/10/01 09:10:07;;;;;;;14.50;6.65;;;16.80;99.90;;;;;;5149332;27;20461;-23
2023/10/01 09:12:34;;;;;;;13.77;6.03;;;17.30;99.90;;;;;;5155556;27;20471;-23
2023/10/01 09:15:04;;;;;;;16.85;7.10;;;17.80;99.90;;;;;;5154528;27;20046;-23
2023/10/01 09:17:56;;;;;;;17.98;6.85;;;18.00;99.90;;;;;;5156292;27;20081;-23
2023/10/01 09:21:03;;;;;;;19.08;7.60;;;18.10;99.90;;;;;;5155481;27;20046;-24
2023/10/01 09:23:56;;;;;;;14.70;6.88;;;18.60;99.90;;;;;;5155410;27;20046;-23
2023/10/01 09:26:40;;;;;;;18.33;6.47;;;18.90;99.90;;;;;;5155446;27;20062;-23
2023/10/01 09:29:20;;;;;;;17.40;6.68;;;19.10;99.90;;;;;;5155550;27;20053;-23
2023/10/01 09:31:58;;;;;;;16.58;6.68;;;18.80;99.90;;;;;;5155698;27;20051;-23
2023/10/01 09:34:35;;;;;;;19.83;7.10;;;18.80;99.90;;;;;;5155335;27;20481;-23
2023/10/01 09:37:52;;;;;;;18.13;7.40;;;18.90;99.90;;;;;;5155610;27;20139;-23
2023/10/01 09:42:57;;;;;;;20.58;7.47;;;19.30;99.90;;;;;;5155523;27;20088;-23
2023/10/01 09:45:39;;;;;;;15.60;7.15;;;19.30;99.90;;;;;;5154241;27;20472;-23
2023/10/01 09:48:09;;;;;;;16.38;6.78;;;19.30;99.90;;;;;;5155519;27;20163;-23
2023/10/01 09:50:44;;;;;;;18.35;7.75;;;19.30;99.90;;;;;;5155189;27;20437;-23
2023/10/01 09:53:12;;;;;;;20.52;7.32;;;19.20;99.90;;;;;;5156013;27;20400;-23
2023/10/01 09:55:48;;;;;;;19.00;7.43;;;19.00;99.90;;;;;;5159201;27;20075;-23
2023/10/01 09:58:24;;;;;;;19.27;7.47;;;19.10;99.90;;;;;;5159292;27;20042;-23
2023/10/01 10:01:01;;;;;;;20.38;7.97;;;19.10;99.90;;;;;;5158877;27;20054;-23
2023/10/01 10:03:37;;;;;;;23.88;8.27;;;19.10;99.90;;;;;;5158450;27;20057;-24
2023/10/01 10:06:08;;;;;;;18.58;6.72;;;19.10;99.90;;;;;;5159076;27;20047;-23
2023/10/01 10:08:39;;;;;;;22.42;7.28;;;19.40;99.90;;;;;;5158940;27;20043;-24
2023/10/01 10:11:13;;;;;;;18.10;7.25;;;19.60;99.90;;;;;;5158013;27;20043;-24
2023/10/01 10:13:48;;;;;;;16.67;7.72;;;20.00;99.90;;;;;;5159800;27;20129;-23
2023/10/01 10:16:32;;;;;;;17.05;8.18;;;20.50;99.90;;;;;;5158864;27;20054;-23
2023/10/01 10:19:20;;;;;;;19.08;7.97;;;21.50;99.90;;;;;;5158889;27;20152;-23
2023/10/01 10:24:46;;;;;;;14.05;6.78;;;22.20;99.90;;;;;;5159528;27;20046;-24
2023/10/01 10:27:52;;;;;;;14.30;7.00;;;21.90;99.90;;;;;;5158223;27;20058;-23
2023/10/01 10:30:21;;;;;;;19.05;7.95;;;21.80;99.90;;;;;;5158226;27;20137;-24
2023/10/01 10:33:15;;;;;;;14.10;6.72;;;21.40;99.90;;;;;;5158409;27;20045;-24
2023/10/01 10:35:50;;;;;;;18.13;7.88;;;21.30;99.90;;;;;;5158371;27;20476;-24
2023/10/01 10:38:51;;;;;;;17.77;8.02;;;21.20;99.90;;;;;;5159076;27;20168;-24
2023/10/01 10:41:17;;;;;;;12.85;6.93;;;21.00;99.90;;;;;;5158400;27;20488;-23
2023/10/01 10:44:09;;;;;;;20.42;7.40;;;20.90;99.90;;;;;;5158317;27;20088;-23
2023/10/01 10:47:03;;;;;;;20.52;7.68;;;20.70;99.90;;;;;;5159185;27;20054;-23
2023/10/01 10:49:51;;;;;;;17.35;7.38;;;20.50;99.90;;;;;;5156988;27;20069;-23
2023/10/01 10:52:33;;;;;;;18.73;8.15;;;20.10;99.90;;;;;;5158408;27;20085;-23
2023/10/01 10:55:18;;;;;;;16.80;8.23;;;20.00;99.90;;;;;;5158023;27;20090;-23
2023/10/01 10:57:51;;;;;;;14.60;6.43;;;20.10;99.90;;;;;;5158686;27;20042;-24
2023/10/01 11:00:24;;;;;;;17.10;6.88;;;20.20;99.90;;;;;;5158350;27;20428;-23
2023/10/01 11:03:00;;;;;;;14.40;6.30;;;20.10;99.90;;;;;;5158632;27;20066;-24
2023/10/01 11:05:49;;;;;;;19.25;7.72;;;20.10;99.90;;;;;;5156902;27;20125;-24
2023/10/01 11:08:28;;;;;;;19.65;7.47;;;20.10;99.90;;;;;;5158686;27;20043;-23
2023/10/01 11:10:55;;;;;;;15.00;6.80;;;20.10;99.90;;;;;;5158118;27;20043;-23
2023/10/01 11:13:57;;;;;;;17.95;6.93;;;20.00;99.90;;;;;;5157818;27;20476;-23
2023/10/01 11:16:33;;;;;;;19.08;7.80;;;19.90;99.90;;;;;;5158626;27;20056;-23
2023/10/01 11:19:25;;;;;;;16.23;7.25;;;19.90;99.90;;;;;;5157746;27;20049;-23
2023/10/01 11:21:55;;;;;;;17.42;7.15;;;20.20;99.90;;;;;;5157570;27;20042;-23
2023/10/01 11:24:41;;;;;;;19.80;8.15;;;20.20;99.90;;;;;;5156248;27;20081;-23
2023/10/01 11:27:25;;;;;;;24.58;9.68;;;20.50;99.90;;;;;;5157471;27;20058;-23
2023/10/01 11:30:15;;;;;;;19.42;7.07;;;20.80;99.90;;;;;;5157002;27;20074;-23
2023/10/01 11:33:04;;;;;;;20.60;7.78;;;20.90;99.90;;;;;;5157455;27;20047;-23
2023/10/01 11:35:34;;;;;;;17.08;7.78;;;21.10;99.90;;;;;;5139138;27;20057;-24
2023/10/01 11:38:13;;;;;;;20.63;7.63;;;21.10;99.90;;;;;;5156315;27;20062;-23
2023/10/01 11:43:32;;;;;;;19.48;8.25;;;21.00;99.90;;;;;;5156491;27;20084;-23
2023/10/01 11:46:23;;;;;;;16.83;7.18;;;20.70;99.90;;;;;;5157476;27;20046;-23
2023/10/01 11:49:09;;;;;;;21.05;7.65;;;20.60;99.90;;;;;;5157301;27;20046;-24
2023/10/01 11:54:43;;;;;;;18.35;8.38;;;20.50;99.90;;;;;;5156109;27;20488;-23
2023/10/01 11:57:22;;;;;;;23.00;9.45;;;20.60;99.90;;;;;;5156841;27;20446;-23
2023/10/01 11:59:55;;;;;;;16.27;6.85;;;20.60;99.90;;;;;;5157403;27;20117;-23
2023/10/01 12:02:25;;;;;;;17.60;8.35;;;20.60;99.90;;;;;;5157374;27;20129;-23
2023/10/01 12:04:59;;;;;;;20.45;7.93;;;20.60;99.90;;;;;;5155731;27;20131;-23
2023/10/01 12:07:40;;;;;;;19.48;7.63;;;20.80;99.90;;;;;;5156690;27;20472;-23
2023/10/01 12:10:07;;;;;;;21.30;9.27;;;20.90;99.90;;;;;;5139269;27;20407;-24
2023/10/01 12:12:37;;;;;;;17.65;7.78;;;21.20;99.90;;;;;;5156837;27;20462;-23
2023/10/01 12:17:54;;;;;;;17.17;7.10;;;21.50;1.00;;;;;;5156013;27;20100;-23
2023/10/01 12:20:28;;;;;;;20.45;8.23;;;21.70;11.10;;;;;;5155951;27;20506;-23
2023/10/01 12:28:29;;;;;;;17.77;7.93;;;21.40;37.10;;;;;;5156105;27;20397;-23
2023/10/01 12:31:08;;;;;;;19.83;8.25;;;21.60;99.90;;;;;;5156965;27;20453;-23
2023/10/01 12:33:38;;;;;;;17.52;7.70;;;21.80;61.80;;;;;;5155986;27;20057;-23
2023/10/01 12:36:11;;;;;;;18.20;8.55;;;22.10;10.90;;;;;;5154991;27;20046;-23
2023/10/01 12:38:38;;;;;;;17.73;8.70;;;22.50;99.90;;;;;;5155992;27;20047;-23
2023/10/01 12:41:05;;;;;;;17.50;7.93;;;22.70;47.60;;;;;;5145854;27;20392;-23
2023/10/01 12:43:37;;;;;;;21.25;8.50;;;22.60;99.90;;;;;;5149184;27;20483;-23
2023/10/01 12:46:08;;;;;;;17.33;8.57;;;22.50;66.30;;;;;;5152902;27;20038;-23
2023/10/01 12:48:36;;;;;;;19.15;8.98;;;22.00;99.90;;;;;;5153655;27;20307;-24
2023/10/01 12:51:07;;;;;;;19.25;9.25;;;21.60;99.90;;;;;;5154507;27;20047;-23
2023/10/01 12:53:48;;;;;;;19.75;8.70;;;21.50;99.90;;;;;;5154277;27;20053;-23
2023/10/01 12:56:16;;;;;;;16.80;8.80;;;21.20;1.00;;;;;;5155495;27;20055;-23
2023/10/01 12:58:53;;;;;;;16.98;8.43;;;21.10;60.20;;;;;;5146768;27;20414;-23
2023/10/01 13:01:53;;;;;;;20.45;8.38;;;21.20;99.90;;;;;;5143818;27;20399;-23
2023/10/01 13:04:25;;;;;;;26.88;8.32;;;21.20;99.90;;;;;;5132924;27;20496;-24
2023/10/01 13:07:01;;;;;;;19.60;8.73;;;21.30;61.20;;;;;;5134989;27;20511;-24
2023/10/01 13:12:15;;;;;;;17.67;9.05;;;21.50;1.00;;;;;;5155608;27;20046;-24
2023/10/01 13:15:14;;;;;;;23.70;9.43;;;21.50;1.00;;;;;;5153345;27;20419;-24
2023/10/01 13:17:43;;;;;;;19.35;8.75;;;21.50;27.50;;;;;;5135615;27;20051;-23
2023/10/01 13:20:22;;;;;;;22.02;9.07;;;21.60;99.90;;;;;;5135110;27;20054;-24
2023/10/01 13:22:53;;;;;;;19.73;8.45;;;21.40;76.60;;;;;;5135383;27;20429;-24
2023/10/01 13:25:20;;;;;;;21.60;8.73;;;21.50;10.40;;;;;;5139959;27;20042;-23
2023/10/01 13:28:01;;;;;;;22.95;9.90;;;21.50;18.60;;;;;;5148939;27;20078;-24
2023/10/01 13:31:03;;;;;;;19.27;9.30;;;21.50;1.00;;;;;;5151239;27;20434;-24
2023/10/01 13:33:23;;;;;;;19.23;9.43;;;21.70;1.00;;;;;;5146370;27;20407;-24
2023/10/01 13:35:58;;;;;;;18.52;9.52;;;21.60;99.90;;;;;;5155320;27;20123;-24
2023/10/01 14:11:07;;;;;;;20.17;9.25;;;20.90;99.90;;;;;;5154861;27;20149;-24
2023/10/01 14:13:36;;;;;;;21.65;9.20;;;20.90;99.90;;;;;;5145949;27;20045;-24
2023/10/01 14:16:22;;;;;;;19.63;6.80;;;20.90;99.90;;;;;;5154270;27;20058;-24
2023/10/01 14:18:53;;;;;;;25.10;8.90;;;20.80;99.90;;;;;;5154810;27;20038;-24
2023/10/01 14:21:28;;;;;;;20.20;8.38;;;20.70;99.90;;;;;;5154066;27;20038;-24
2023/10/01 14:24:21;;;;;;;17.77;8.90;;;20.70;99.90;;;;;;5150926;27;20043;-24
2023/10/01 14:26:46;;;;;;;20.30;9.45;;;20.90;99.90;;;;;;5154872;27;20051;-24
2023/10/01 14:29:13;;;;;;;19.25;8.05;;;21.10;99.90;;;;;;5157749;27;20400;-24
2023/10/01 14:31:48;;;;;;;19.05;7.63;;;21.10;28.10;;;;;;5154667;27;20054;-24
2023/10/01 14:34:17;;;;;;;18.50;8.95;;;21.10;1.00;;;;;;5146704;27;20062;-22
2023/10/01 14:36:46;;;;;;;15.32;7.32;;;20.90;2.90;;;;;;5149445;27;20051;-23
2023/10/01 14:39:13;;;;;;;16.35;9.27;;;20.90;99.90;;;;;;5144298;27;20050;-24
2023/10/01 14:41:44;;;;;;;20.95;9.23;;;20.70;1.00;;;;;;5154952;27;20042;-24